Time;durP1;ratioP1;P1;durP2;ratioP2;P2;SDS_P1;SDS_P2;PMS_P1;PMS_P2;Temp;Humidity;BMP_temperature;BMP_pressure;BME280_temperature;BME280_humidity;BME280_pressure;Samples;Min_cycle;Max_cycle;Signal;HPM_P1;HPM_P2
2022/05/16 00:00:24;;;;;;;18.15;6.22;;;;;;;13.76;71.65;99728.03;4997182;28;20278;-51
2022/05/16 00:02:52;;;;;;;18.98;5.28;;;;;;;13.77;71.14;99719.31;4997834;28;20049;-49
2022/05/16 00:05:20;;;;;;;18.42;5.65;;;;;;;13.74;70.64;99708.97;4999111;28;20050;-57
2022/05/16 00:07:48;;;;;;;15.88;5.50;;;;;;;13.76;71.26;99715.00;4998053;28;20133;-55
2022/05/16 00:10:15;;;;;;;16.77;5.55;;;;;;;13.76;70.83;99699.41;4997281;28;20050;-54
2022/05/16 00:12:42;;;;;;;18.00;5.63;;;;;;;13.77;71.64;99701.09;4995305;28;20087;-51
2022/05/16 00:15:10;;;;;;;19.90;5.30;;;;;;;13.76;71.91;99699.41;4997175;28;20058;-51
2022/05/16 00:17:38;;;;;;;15.02;5.22;;;;;;;13.79;70.36;99698.47;4999736;28;20116;-51
2022/05/16 00:20:07;;;;;;;20.55;5.63;;;;;;;13.78;71.25;99697.59;4999957;28;20104;-52
2022/05/16 00:22:36;;;;;;;12.32;4.78;;;;;;;13.78;71.88;99713.22;5000685;28;20081;-52
2022/05/16 00:25:06;;;;;;;16.98;6.75;;;;;;;13.75;71.92;99718.50;4999940;28;20601;-50
2022/05/16 00:27:35;;;;;;;15.85;5.28;;;;;;;13.70;72.17;99716.00;5003112;28;20050;-56
2022/05/16 00:30:05;;;;;;;17.08;5.60;;;;;;;13.69;71.48;99742.06;5002491;28;20141;-54
2022/05/16 00:32:34;;;;;;;18.08;6.32;;;;;;;13.62;72.92;99744.75;4994605;28;20046;-54
2022/05/16 00:35:05;;;;;;;23.52;6.65;;;;;;;13.58;72.33;99724.91;5000152;28;20478;-54
2022/05/16 00:37:32;;;;;;;14.90;4.15;;;;;;;13.53;73.58;99728.47;4995761;28;20052;-52
2022/05/16 00:39:59;;;;;;;17.20;5.57;;;;;;;13.48;73.21;99720.75;4997636;28;20663;-52
2022/05/16 00:42:26;;;;;;;18.20;5.55;;;;;;;13.42;74.09;99718.28;5000321;28;20096;-53
2022/05/16 00:44:53;;;;;;;13.30;5.18;;;;;;;13.39;74.43;99731.34;4999588;28;20054;-55
2022/05/16 00:47:19;;;;;;;18.45;7.18;;;;;;;13.37;73.86;99726.16;4994750;28;20426;-50
2022/05/16 00:49:48;;;;;;;21.10;5.50;;;;;;;13.37;73.88;99719.22;5000123;28;20045;-52
2022/05/16 00:52:18;;;;;;;13.60;5.53;;;;;;;13.37;73.06;99708.81;4995700;28;20140;-49
2022/05/16 00:54:50;;;;;;;12.32;4.82;;;;;;;13.36;73.74;99719.25;5002676;28;20042;-53
2022/05/16 00:57:23;;;;;;;17.63;6.80;;;;;;;13.35;73.86;99700.16;5000367;28;20489;-53
2022/05/16 01:05:14;;;;;;;20.00;7.35;;;;;;;13.30;73.33;99707.22;5025756;28;20049;-53
2022/05/16 01:07:43;;;;;;;17.40;6.90;;;;;;;13.28;74.67;99708.16;5000875;28;20550;-52
2022/05/16 01:10:14;;;;;;;20.23;7.10;;;;;;;13.29;73.76;99715.06;5002835;28;20050;-54
2022/05/16 01:12:44;;;;;;;18.08;6.75;;;;;;;13.28;73.97;99714.22;5001487;28;20454;-51
2022/05/16 01:15:16;;;;;;;17.52;7.78;;;;;;;13.27;73.87;99715.06;5000297;28;20360;-55
2022/05/16 01:17:44;;;;;;;21.70;7.82;;;;;;;13.24;74.07;99709.94;4999001;28;20046;-50
2022/05/16 01:20:11;;;;;;;21.05;6.53;;;;;;;13.24;74.76;99712.53;5001143;28;20054;-54
2022/05/16 01:22:48;;;;;;;18.15;6.65;;;;;;;13.26;73.88;99709.91;5000845;28;20046;-56
2022/05/16 01:25:21;;;;;;;24.35;7.63;;;;;;;13.30;74.56;99712.41;4997687;28;20077;-50
2022/05/16 01:27:52;;;;;;;19.90;6.93;;;;;;;13.33;74.12;99712.38;4998174;28;20042;-56
2022/05/16 01:30:26;;;;;;;18.17;6.72;;;;;;;13.37;73.71;99710.56;4982290;28;20556;-50
2022/05/16 01:32:53;;;;;;;19.60;7.53;;;;;;;13.40;73.81;99712.25;4992945;28;20045;-54
2022/05/16 01:35:22;;;;;;;18.15;7.32;;;;;;;13.43;73.74;99706.97;4998475;28;20100;-54
2022/05/16 01:40:37;;;;;;;23.02;7.47;;;;;;;13.46;72.73;99699.09;4995607;28;20088;-48
2022/05/16 01:43:04;;;;;;;18.98;6.80;;;;;;;13.46;73.45;99699.09;5004042;28;20046;-49
2022/05/16 01:45:32;;;;;;;23.65;7.88;;;;;;;13.42;74.10;99700.06;4994076;28;20054;-51
2022/05/16 01:47:58;;;;;;;16.17;6.95;;;;;;;13.36;74.12;99696.72;5001996;28;20050;-49
2022/05/16 01:50:25;;;;;;;20.50;7.28;;;;;;;13.33;73.43;99696.75;4993326;28;20093;-54
2022/05/16 01:52:51;;;;;;;16.13;6.60;;;;;;;13.29;74.62;99689.91;5000395;28;20108;-51
2022/05/16 01:55:18;;;;;;;19.05;6.55;;;;;;;13.24;75.13;99686.53;4999911;28;20050;-50
2022/05/16 01:57:46;;;;;;;16.33;6.32;;;;;;;13.23;73.66;99684.81;5001649;28;20379;-55
2022/05/16 02:00:15;;;;;;;21.52;7.40;;;;;;;13.22;74.63;99689.19;4998702;28;20046;-55
2022/05/16 02:02:42;;;;;;;17.80;7.20;;;;;;;13.22;74.53;99689.19;4998921;28;20077;-51
2022/05/16 02:05:12;;;;;;;18.60;7.28;;;;;;;13.20;74.60;99684.88;4991654;28;20049;-56
2022/05/16 02:07:39;;;;;;;21.20;7.95;;;;;;;13.16;75.20;99683.22;4994147;28;20056;-53
2022/05/16 02:10:08;;;;;;;19.52;7.20;;;;;;;13.16;75.73;99683.22;4998418;28;20544;-51
2022/05/16 02:12:35;;;;;;;22.25;7.38;;;;;;;13.16;74.48;99675.41;4991903;28;20049;-48
2022/05/16 02:15:04;;;;;;;21.88;7.63;;;;;;;13.17;75.14;99671.94;4984780;28;20046;-51
2022/05/16 02:17:30;;;;;;;21.35;7.30;;;;;;;13.21;74.02;99671.00;4984077;28;20046;-51
2022/05/16 02:19:57;;;;;;;17.50;6.85;;;;;;;13.23;74.31;99666.59;4987394;28;20125;-52
2022/05/16 02:25:10;;;;;;;20.27;7.00;;;;;;;13.30;74.37;99670.81;4982691;28;20050;-47
2022/05/16 02:27:37;;;;;;;22.17;7.78;;;;;;;13.33;73.79;99668.16;4980127;28;20042;-49
2022/05/16 02:30:06;;;;;;;22.17;7.78;;;;;;;13.35;74.17;99668.13;4984921;28;20054;-49
2022/05/16 02:32:33;;;;;;;18.63;7.07;;;;;;;13.37;73.13;99676.72;4986483;28;20047;-51
2022/05/16 02:34:59;;;;;;;21.75;8.23;;;;;;;13.36;74.01;99675.91;4981209;28;20051;-54
2022/05/16 02:37:26;;;;;;;18.25;6.80;;;;;;;13.32;73.32;99700.25;4986007;28;20610;-49
2022/05/16 02:39:52;;;;;;;20.40;7.10;;;;;;;13.29;73.18;99695.09;4982275;28;20046;-51
2022/05/16 02:42:19;;;;;;;26.55;8.60;;;;;;;13.29;74.88;99689.03;4982006;28;20050;-52
2022/05/16 02:44:46;;;;;;;21.95;7.35;;;;;;;13.27;73.58;99685.63;4988373;28;20149;-53
2022/05/16 02:47:16;;;;;;;26.75;7.70;;;;;;;13.28;74.40;99682.13;4979893;28;20514;-53
2022/05/16 02:49:44;;;;;;;22.02;7.30;;;;;;;13.29;74.17;99686.44;4983681;28;20050;-51
2022/05/16 02:52:10;;;;;;;16.35;7.60;;;;;;;13.27;74.47;99681.25;4987020;28;20054;-52
2022/05/16 02:54:43;;;;;;;22.75;8.23;;;;;;;13.27;74.69;99683.88;4988320;28;20132;-53
2022/05/16 02:57:09;;;;;;;26.08;8.05;;;;;;;13.27;73.55;99678.66;4985494;28;20049;-53
2022/05/16 02:59:37;;;;;;;22.63;7.63;;;;;;;13.28;73.76;99667.41;4985074;28;20073;-53
2022/05/16 03:02:06;;;;;;;26.20;7.53;;;;;;;13.28;73.67;99667.41;4981870;28;20050;-50
2022/05/16 03:04:34;;;;;;;20.85;8.00;;;;;;;13.29;74.48;99663.03;4974663;28;20050;-50
2022/05/16 03:07:02;;;;;;;20.52;7.10;;;;;;;13.28;73.33;99657.00;4984924;28;20046;-53
2022/05/16 03:09:28;;;;;;;16.48;6.68;;;;;;;13.28;73.79;99657.00;4983410;28;20097;-52
2022/05/16 03:11:55;;;;;;;14.88;7.03;;;;;;;13.25;73.75;99657.06;4982810;28;20950;-54
2022/05/16 03:14:22;;;;;;;22.63;8.35;;;;;;;13.23;73.19;99661.41;4987142;28;20092;-50
2022/05/16 03:16:48;;;;;;;20.13;7.20;;;;;;;13.22;73.35;99657.09;4977630;28;20059;-52
2022/05/16 03:19:15;;;;;;;21.58;8.23;;;;;;;13.19;74.34;99646.75;4982663;28;20121;-51
2022/05/16 03:21:42;;;;;;;19.85;7.10;;;;;;;13.17;74.20;99638.97;4982745;28;20097;-54
2022/05/16 03:24:09;;;;;;;18.98;7.72;;;;;;;13.17;74.12;99636.38;4985993;28;20100;-53
2022/05/16 03:26:37;;;;;;;16.85;7.60;;;;;;;13.18;74.05;99639.84;4983656;28;20042;-53
2022/05/16 03:29:11;;;;;;;21.90;7.60;;;;;;;13.18;73.46;99638.13;4975439;28;20108;-51
2022/05/16 03:31:39;;;;;;;22.23;7.63;;;;;;;13.22;73.27;99638.91;4979936;28;20046;-51
2022/05/16 03:34:07;;;;;;;19.98;7.85;;;;;;;13.24;73.41;99637.09;4979391;28;20043;-54
2022/05/16 03:36:35;;;;;;;18.88;6.63;;;;;;;13.24;73.70;99640.56;4980169;28;20438;-54
2022/05/16 03:41:50;;;;;;;21.65;7.18;;;;;;;13.26;73.36;99637.94;4982753;28;20105;-52
2022/05/16 03:44:17;;;;;;;16.50;7.43;;;;;;;13.27;73.85;99631.84;4985315;28;20117;-52
2022/05/16 03:46:44;;;;;;;20.90;8.40;;;;;;;13.29;74.00;99634.41;4985785;28;20050;-56
2022/05/16 03:49:11;;;;;;;20.67;8.50;;;;;;;13.26;72.98;99627.53;4983270;28;20193;-49
2022/05/16 03:51:38;;;;;;;22.23;7.93;;;;;;;13.24;72.89;99626.72;4978747;28;20441;-54
2022/05/16 03:54:05;;;;;;;21.83;7.32;;;;;;;13.23;73.69;99623.28;4984392;28;20050;-54
2022/05/16 03:56:33;;;;;;;21.58;7.93;;;;;;;13.22;73.38;99615.50;4985913;28;20043;-54
2022/05/16 03:59:00;;;;;;;21.30;6.90;;;;;;;13.21;73.21;99598.19;4985016;28;20050;-50
2022/05/16 04:01:27;;;;;;;15.68;6.93;;;;;;;13.22;73.61;99597.28;4981316;28;20046;-51
2022/05/16 04:03:55;;;;;;;22.48;8.57;;;;;;;13.20;74.19;99612.06;4982573;28;20101;-52
2022/05/16 04:06:22;;;;;;;21.85;8.05;;;;;;;13.18;72.93;99616.44;4983728;28;20911;-50
2022/05/16 04:08:49;;;;;;;21.90;7.10;;;;;;;13.11;74.66;99598.38;4977816;28;20054;-51
2022/05/16 04:11:17;;;;;;;21.75;7.18;;;;;;;13.13;73.60;99607.91;4984772;28;20116;-49
2022/05/16 04:13:44;;;;;;;20.67;7.00;;;;;;;13.09;73.24;99618.34;4982560;28;20054;-50
2022/05/16 04:16:11;;;;;;;25.67;7.43;;;;;;;13.05;74.91;99606.31;4982805;28;20116;-55
2022/05/16 04:18:39;;;;;;;15.95;6.63;;;;;;;13.02;73.83;99608.97;4980709;28;20201;-55
2022/05/16 04:21:06;;;;;;;25.35;8.20;;;;;;;12.97;74.28;99610.81;4981880;28;20390;-50
2022/05/16 04:23:32;;;;;;;19.27;7.57;;;;;;;12.96;74.35;99609.06;4984020;28;20077;-53
2022/05/16 04:25:59;;;;;;;27.45;7.22;;;;;;;12.91;74.77;99609.19;4987361;28;20630;-51
2022/05/16 04:28:26;;;;;;;23.08;7.82;;;;;;;12.89;76.13;99616.13;4982394;28;20046;-51
2022/05/16 04:30:53;;;;;;;23.63;7.97;;;;;;;12.83;76.35;99624.91;4980792;28;20096;-51
2022/05/16 04:33:20;;;;;;;22.98;7.90;;;;;;;12.79;76.83;99625.84;4980293;28;20050;-53
2022/05/16 04:35:46;;;;;;;17.48;6.78;;;;;;;12.76;76.85;99623.31;4979194;28;20096;-52
2022/05/16 04:38:13;;;;;;;22.52;8.20;;;;;;;12.80;75.93;99619.75;4982790;28;20046;-55
2022/05/16 04:42:40;;;;;;;18.08;7.45;;;;;;;12.84;76.46;99616.22;4981002;28;20093;-55
2022/05/16 04:43:26;;;;;;;24.58;7.70;;;;;;;12.89;75.50;99615.28;4975797;28;20078;-51
2022/05/16 04:45:53;;;;;;;22.83;7.55;;;;;;;12.93;75.96;99623.00;4968458;28;20120;-52
2022/05/16 04:48:19;;;;;;;21.90;7.65;;;;;;;12.97;74.92;99627.25;4983160;28;20499;-55
2022/05/16 04:50:46;;;;;;;26.17;7.88;;;;;;;13.03;75.48;99613.25;4979737;28;20597;-55
2022/05/16 04:53:13;;;;;;;22.08;8.02;;;;;;;13.06;74.45;99618.41;4980806;28;20038;-56
2022/05/16 04:55:39;;;;;;;22.05;7.50;;;;;;;13.06;74.04;99605.41;4982069;28;20043;-55
2022/05/16 04:58:06;;;;;;;26.08;8.05;;;;;;;13.06;75.35;99602.81;4981856;28;20051;-54
2022/05/16 05:00:32;;;;;;;25.95;8.38;;;;;;;13.08;74.43;99598.41;4975651;28;20054;-55
2022/05/16 05:02:59;;;;;;;27.50;8.25;;;;;;;13.11;74.29;99598.38;4985073;28;20121;-53
2022/05/16 05:05:26;;;;;;;20.65;8.10;;;;;;;13.15;75.54;99593.97;4986240;28;20088;-55
2022/05/16 05:07:52;;;;;;;24.65;8.63;;;;;;;13.18;74.89;99582.66;4981161;28;20660;-54
2022/05/16 05:16:14;;;;;;;15.38;7.43;;;;;;;13.09;74.55;99574.16;4981062;28;20112;-50
2022/05/16 05:18:42;;;;;;;21.80;5.95;;;;;;;13.14;75.20;99586.19;4983217;28;20567;-50
2022/05/16 05:21:09;;;;;;;22.90;7.75;;;;;;;13.15;74.42;99574.91;4980871;28;20046;-53
2022/05/16 05:23:39;;;;;;;20.20;7.70;;;;;;;13.17;75.10;99588.75;4983361;28;20054;-57
2022/05/16 05:26:09;;;;;;;22.92;8.50;;;;;;;13.19;74.94;99586.94;4976178;28;20194;-56
2022/05/16 05:28:37;;;;;;;22.60;8.27;;;;;;;13.21;75.05;99599.03;4974784;28;20584;-55
2022/05/16 05:31:04;;;;;;;21.48;8.95;;;;;;;13.22;73.88;99631.09;4979584;28;20046;-49
2022/05/16 05:33:31;;;;;;;23.20;8.32;;;;;;;13.24;74.17;99634.50;4981388;28;20093;-52
2022/05/16 05:35:58;;;;;;;25.92;8.20;;;;;;;13.27;74.29;99639.66;4983319;28;20127;-57
2022/05/16 05:38:24;;;;;;;24.50;8.38;;;;;;;13.23;74.70;99638.00;4981336;28;20051;-53
2022/05/16 05:40:51;;;;;;;17.77;7.90;;;;;;;13.21;75.03;99645.00;4982412;28;20057;-53
2022/05/16 05:43:17;;;;;;;27.52;8.75;;;;;;;13.15;75.22;99639.91;4978063;28;20101;-54
2022/05/16 05:45:44;;;;;;;25.15;8.73;;;;;;;13.19;75.71;99636.34;4978032;28;20545;-53
2022/05/16 05:48:12;;;;;;;21.98;8.23;;;;;;;13.22;75.20;99642.38;4981361;28;20137;-49
2022/05/16 05:50:38;;;;;;;25.35;8.35;;;;;;;13.24;75.78;99663.97;4985833;28;20047;-53
2022/05/16 05:53:05;;;;;;;22.60;8.10;;;;;;;13.27;74.68;99670.03;4986015;28;20058;-50
2022/05/16 05:55:31;;;;;;;25.85;8.82;;;;;;;13.30;74.11;99668.22;4982947;28;20054;-50
2022/05/16 05:57:58;;;;;;;24.83;7.28;;;;;;;13.32;75.64;99668.19;4985057;28;20622;-51
2022/05/16 06:00:25;;;;;;;24.48;9.10;;;;;;;13.39;74.61;99674.97;4984525;28;20058;-49
2022/05/16 06:02:51;;;;;;;31.25;9.30;;;;;;;13.44;74.30;99673.13;4983318;28;20050;-57
2022/05/16 06:05:21;;;;;;;21.73;8.77;;;;;;;13.46;73.95;99678.28;4982500;28;20054;-50
2022/05/16 06:07:48;;;;;;;20.30;9.88;;;;;;;13.45;74.11;99694.81;4982744;28;20109;-56
2022/05/16 06:10:15;;;;;;;19.50;8.30;;;;;;;13.49;74.78;99696.47;4980717;28;20046;-51
2022/05/16 06:12:42;;;;;;;24.20;9.07;;;;;;;13.53;75.16;99687.72;4986103;28;20081;-51
2022/05/16 06:15:10;;;;;;;19.70;7.70;;;;;;;13.59;74.98;99685.00;4984121;28;20053;-51
2022/05/16 06:17:37;;;;;;;28.90;10.02;;;;;;;13.70;74.87;99689.09;4987431;28;20061;-53
2022/05/16 06:20:06;;;;;;;23.20;9.82;;;;;;;13.81;75.25;99707.94;4982728;28;20078;-55
2022/05/16 06:22:37;;;;;;;21.80;8.88;;;;;;;13.93;73.79;99712.03;4981868;28;20054;-53
2022/05/16 06:27:55;;;;;;;25.23;8.27;;;;;;;14.04;74.42;99719.59;4987978;28;20092;-51
2022/05/16 06:30:22;;;;;;;23.45;9.02;;;;;;;14.05;74.20;99728.28;4985275;28;20058;-51
2022/05/16 06:32:49;;;;;;;27.67;9.27;;;;;;;14.09;73.95;99717.75;4979652;28;20136;-52
2022/05/16 06:35:16;;;;;;;18.73;8.65;;;;;;;14.12;74.33;99725.50;4986130;28;20046;-52
2022/05/16 06:38:10;;;;;;;21.75;7.97;;;;;;;14.10;74.70;99724.69;4981945;28;20564;-53
2022/05/16 06:40:38;;;;;;;19.80;7.70;;;;;;;14.10;74.16;99722.09;4980151;28;20058;-54
2022/05/16 06:43:06;;;;;;;23.58;8.90;;;;;;;14.12;74.27;99722.88;4981518;28;20478;-57
2022/05/16 06:45:33;;;;;;;20.42;8.25;;;;;;;14.13;74.38;99729.84;4978237;28;20050;-54
2022/05/16 06:48:01;;;;;;;22.55;8.25;;;;;;;14.13;74.66;99724.63;4979429;28;20054;-54
2022/05/16 06:50:47;;;;;;;20.65;7.60;;;;;;;14.17;75.88;99724.53;4985269;28;20517;-54
2022/05/16 06:53:21;;;;;;;26.73;7.90;;;;;;;14.24;75.53;99726.09;4975827;28;20489;-53
2022/05/16 06:55:48;;;;;;;26.35;9.25;;;;;;;14.44;74.96;99725.66;4978420;28;20059;-51
2022/05/16 06:58:14;;;;;;;27.60;9.73;;;;;;;14.67;74.67;99728.56;4983585;28;20498;-49
2022/05/16 07:00:41;;;;;;;18.98;8.02;;;;;;;14.86;74.93;99729.84;4983349;28;20373;-52
2022/05/16 07:03:09;;;;;;;22.70;8.98;;;;;;;15.03;74.32;99731.19;4982264;28;20044;-53
2022/05/16 07:05:47;;;;;;;20.45;8.57;;;;;;;15.10;74.27;99717.06;4981453;28;20575;-55
2022/05/16 07:08:14;;;;;;;18.90;8.52;;;;;;;15.10;73.61;99724.88;4979355;28;20090;-53
2022/05/16 07:10:42;;;;;;;24.98;8.93;;;;;;;15.13;73.94;99737.00;4981263;28;20113;-49
2022/05/16 07:13:08;;;;;;;21.10;9.15;;;;;;;15.18;73.72;99742.09;4983100;28;20073;-50
2022/05/16 07:15:35;;;;;;;21.25;9.05;;;;;;;15.22;74.18;99747.19;4977741;28;20647;-51
2022/05/16 07:18:02;;;;;;;22.85;10.70;;;;;;;15.25;73.85;99751.47;4985972;28;20197;-50
2022/05/16 07:20:35;;;;;;;23.40;9.70;;;;;;;15.25;74.17;99756.69;4983207;28;20391;-52
2022/05/16 07:23:02;;;;;;;25.75;10.13;;;;;;;15.26;73.73;99758.38;4961374;28;20046;-52
2022/05/16 07:25:32;;;;;;;23.67;11.60;;;;;;;15.31;73.40;99761.75;4974434;28;20729;-53
2022/05/16 07:28:01;;;;;;;21.13;10.90;;;;;;;15.37;73.42;99760.72;4984460;28;20137;-47
2022/05/16 07:33:04;;;;;;;27.63;11.70;;;;;;;15.84;73.25;99760.25;5047121;28;20412;-48
2022/05/16 07:35:33;;;;;;;23.65;9.35;;;;;;;15.65;73.47;99766.03;5006367;28;20061;-48
2022/05/16 07:38:00;;;;;;;23.02;10.10;;;;;;;15.65;73.38;99765.16;5006814;28;20050;-53
2022/05/16 07:40:30;;;;;;;23.98;9.43;;;;;;;15.62;72.97;99766.13;5019046;28;20061;-53
2022/05/16 07:42:58;;;;;;;26.38;10.02;;;;;;;15.64;73.66;99773.91;5006793;28;20057;-53
2022/05/16 07:45:25;;;;;;;28.50;9.70;;;;;;;15.65;72.83;99781.69;5007881;28;20053;-53
2022/05/16 07:47:52;;;;;;;26.23;9.32;;;;;;;15.67;72.58;99779.88;5016296;28;20053;-52
2022/05/16 07:50:22;;;;;;;21.80;9.07;;;;;;;15.66;73.38;99788.63;5006100;28;20438;-51
2022/05/16 07:52:48;;;;;;;24.70;9.93;;;;;;;15.64;72.91;99785.19;5007757;28;20054;-45
2022/05/16 07:55:19;;;;;;;19.35;9.48;;;;;;;15.65;73.13;99788.66;5013814;28;20046;-53
2022/05/16 07:57:46;;;;;;;20.17;9.40;;;;;;;15.65;73.09;99786.91;5008240;28;20045;-50
2022/05/16 08:00:14;;;;;;;24.80;9.57;;;;;;;15.65;72.77;99789.53;5012758;28;20046;-51
2022/05/16 08:02:40;;;;;;;24.55;8.93;;;;;;;15.65;73.10;99791.28;5009908;28;20614;-54
2022/05/16 08:05:09;;;;;;;27.65;9.77;;;;;;;15.63;72.94;99790.44;5009457;28;20061;-46
2022/05/16 08:10:29;;;;;;;22.48;9.95;;;;;;;15.63;72.40;99788.72;5009129;28;20092;-53
2022/05/16 08:10:31;;;;;;;25.90;9.90;;;;;;;15.63;72.71;99804.38;5006840;28;20068;-51
2022/05/16 08:13:01;;;;;;;26.45;9.73;;;;;;;15.65;72.54;99797.38;5008585;28;20129;-50
2022/05/16 08:15:29;;;;;;;21.40;10.32;;;;;;;15.70;72.93;99807.66;5009839;28;20682;-56
2022/05/16 08:17:57;;;;;;;24.55;9.98;;;;;;;15.74;72.73;99816.28;5014539;28;20112;-56
2022/05/16 08:20:25;;;;;;;26.02;10.35;;;;;;;15.79;73.02;99819.59;5001696;28;20054;-56
2022/05/16 08:22:52;;;;;;;30.77;10.93;;;;;;;15.80;72.82;99816.09;5008025;28;20099;-51
2022/05/16 08:25:19;;;;;;;28.75;10.85;;;;;;;15.84;72.69;99822.94;5010019;28;20053;-52
2022/05/16 08:27:50;;;;;;;28.83;12.65;;;;;;;15.85;73.02;99822.06;5022764;28;20046;-52
2022/05/16 08:30:18;;;;;;;34.38;12.07;;;;;;;15.87;73.11;99822.84;4998862;28;20057;-54
2022/05/16 08:32:45;;;;;;;30.83;12.75;;;;;;;15.93;72.50;99822.69;5009321;28;20050;-53
2022/05/16 08:35:13;;;;;;;30.73;10.65;;;;;;;15.98;73.07;99829.56;5004611;28;20045;-51
2022/05/16 08:40:38;;;;;;;30.02;11.35;;;;;;;16.01;72.98;99834.72;5001608;28;20057;-52
2022/05/16 08:43:17;;;;;;;27.88;11.90;;;;;;;16.05;73.02;99846.78;5002357;28;20548;-50
2022/05/16 08:45:56;;;;;;;27.13;11.23;;;;;;;16.06;72.70;99836.28;5004614;28;20104;-57
2022/05/16 08:48:33;;;;;;;27.65;12.25;;;;;;;16.10;72.94;99829.19;4990971;28;20113;-52
2022/05/16 08:51:06;;;;;;;26.85;11.38;;;;;;;16.16;73.37;99839.50;4992792;28;20077;-54
2022/05/16 08:53:45;;;;;;;29.95;12.05;;;;;;;16.21;72.89;99841.09;4991471;28;20058;-49
2022/05/16 08:56:18;;;;;;;31.13;12.40;;;;;;;16.28;73.20;99837.41;4999059;28;20046;-56
2022/05/16 08:59:05;;;;;;;32.03;12.45;;;;;;;16.34;72.91;99845.03;4991923;28;20096;-50
2022/05/16 09:01:37;;;;;;;30.77;11.82;;;;;;;16.45;73.18;99849.97;4990057;28;20050;-50
2022/05/16 09:04:12;;;;;;;30.50;12.60;;;;;;;16.51;72.67;99859.38;4988526;28;20042;-51
2022/05/16 09:06:48;;;;;;;29.02;12.50;;;;;;;16.54;72.48;99854.03;4983908;28;20050;-53
2022/05/16 09:09:18;;;;;;;31.77;12.35;;;;;;;16.53;72.70;99852.34;5002258;28;20047;-58
2022/05/16 09:20:13;;;;;;;32.78;14.23;;;;;;;16.67;71.96;99864.97;5030445;28;20417;-54
2022/05/16 09:23:19;;;;;;;34.33;15.00;;;;;;;16.67;72.24;99865.84;5037795;28;20680;-53
2022/05/16 13:32:38;;;;;;;4.97;1.98;;;;;;;25.79;44.72;100006.38;5022648;27;20415;-52
2022/05/16 15:31:13;;;;;;;1.92;0.77;;;;;;;22.57;53.98;100003.47;5025552;28;20399;-51
2022/05/16 15:33:40;;;;;;;4.32;0.75;;;;;;;22.39;53.01;100007.91;4992758;28;20562;-54
2022/05/16 15:36:25;;;;;;;1.70;0.70;;;;;;;22.21;53.34;100013.22;4984361;28;20128;-50
2022/05/16 15:38:52;;;;;;;3.17;0.73;;;;;;;22.24;53.30;100017.47;4992765;28;20054;-53
2022/05/16 15:41:18;;;;;;;5.80;1.00;;;;;;;22.24;52.84;100010.44;4995916;28;20050;-54
2022/05/16 15:43:47;;;;;;;4.90;0.93;;;;;;;22.31;52.92;100011.81;4995337;28;20042;-47
2022/05/16 15:46:14;;;;;;;2.35;0.80;;;;;;;22.26;54.12;100005.91;4982599;28;20092;-51
2022/05/16 15:48:41;;;;;;;3.05;0.77;;;;;;;22.17;52.52;100003.75;4981018;28;20050;-54
2022/05/16 15:51:10;;;;;;;3.25;0.95;;;;;;;22.14;51.96;100001.28;4992241;28;20500;-51
2022/05/16 15:53:41;;;;;;;1.80;0.80;;;;;;;22.11;51.35;99996.16;4997144;28;20050;-56
2022/05/16 15:56:09;;;;;;;2.38;0.60;;;;;;;22.15;51.98;100008.28;4983240;28;20462;-58
2022/05/16 15:58:53;;;;;;;3.85;0.95;;;;;;;22.25;52.33;99998.94;4989857;28;20536;-49
2022/05/16 16:01:20;;;;;;;2.90;0.70;;;;;;;22.35;51.83;99999.31;4989840;28;20057;-55
2022/05/16 16:09:20;;;;;;;1.95;0.50;;;;;;;22.38;49.84;99993.88;4985179;28;20058;-54
2022/05/16 16:11:47;;;;;;;3.67;0.70;;;;;;;22.32;49.73;99995.03;5020471;28;20081;-52
2022/05/16 16:14:17;;;;;;;2.58;0.90;;;;;;;22.27;49.82;99991.81;4984773;28;20061;-48
2022/05/16 16:16:47;;;;;;;1.77;0.85;;;;;;;22.13;49.28;99989.03;4995262;28;20046;-51
2022/05/16 16:19:21;;;;;;;3.45;0.85;;;;;;;22.06;49.27;99994.63;4992018;28;20042;-56
2022/05/16 16:21:49;;;;;;;2.70;1.33;;;;;;;21.91;49.33;100000.69;5008805;28;20042;-51
2022/05/16 16:24:16;;;;;;;2.88;0.90;;;;;;;21.88;50.19;100006.13;4990660;28;20058;-54
2022/05/16 16:26:42;;;;;;;2.00;0.60;;;;;;;21.78;49.84;99996.03;4989025;28;20054;-50
2022/05/16 16:29:10;;;;;;;4.50;1.33;;;;;;;21.70;50.80;100008.72;4991953;28;20053;-49
2022/05/16 16:31:38;;;;;;;1.20;0.88;;;;;;;21.74;50.85;100002.41;4978764;28;20046;-49
2022/05/16 16:34:09;;;;;;;1.75;0.50;;;;;;;21.86;50.25;100007.97;4987143;28;20050;-54
2022/05/16 16:36:39;;;;;;;4.00;0.73;;;;;;;21.83;50.48;100003.72;4983676;28;20435;-51
2022/05/16 16:39:09;;;;;;;3.20;0.70;;;;;;;21.74;50.51;100010.31;4977979;28;20045;-48
2022/05/16 16:41:39;;;;;;;3.53;1.10;;;;;;;21.66;50.25;100012.44;4994373;28;20061;-54
2022/05/16 16:44:06;;;;;;;1.42;0.70;;;;;;;21.58;50.48;100013.69;4958472;28;20047;-51
2022/05/16 16:46:33;;;;;;;1.65;0.90;;;;;;;21.53;50.67;100018.34;4954191;28;20102;-50
2022/05/16 16:49:03;;;;;;;2.75;0.60;;;;;;;21.49;50.87;100016.78;4962569;28;20061;-55
2022/05/16 16:59:42;;;;;;;2.00;0.75;;;;;;;21.27;51.36;100011.69;4994518;28;20104;-51
2022/05/16 17:02:29;;;;;;;2.20;0.82;;;;;;;21.04;51.20;100008.41;5003567;28;20145;-52
2022/05/16 17:04:59;;;;;;;2.70;1.05;;;;;;;21.05;51.60;100008.28;5012491;28;20084;-52
2022/05/16 17:07:29;;;;;;;4.70;0.82;;;;;;;21.08;52.20;100011.72;5009349;28;20104;-51
2022/05/16 17:09:59;;;;;;;4.35;0.98;;;;;;;21.09;52.02;100008.16;5014243;28;20050;-49
2022/05/16 17:12:28;;;;;;;5.07;0.98;;;;;;;21.03;51.97;100014.56;5041896;28;20048;-54
2022/05/16 17:14:55;;;;;;;2.90;0.93;;;;;;;20.95;52.45;100011.44;5004642;28;20046;-52
2022/05/16 17:17:22;;;;;;;5.03;1.88;;;;;;;20.85;52.49;100014.47;5013552;28;20398;-49
2022/05/16 17:19:48;;;;;;;5.18;0.95;;;;;;;;;;5013443;28;20049;-47
2022/05/16 17:22:17;;;;;;;1.85;0.73;;;;;;;20.90;52.92;100009.88;5037504;28;20091;-55
2022/05/16 17:24:45;;;;;;;2.15;0.93;;;;;;;21.07;53.54;100010.84;5020713;28;20120;-54
2022/05/16 17:27:12;;;;;;;3.88;1.98;;;;;;;21.11;53.16;100006.31;5016332;28;20109;-49
2022/05/16 17:29:41;;;;;;;4.57;1.05;;;;;;;21.12;53.24;100008.00;4989506;28;20049;-50
2022/05/16 17:32:11;;;;;;;3.00;1.02;;;;;;;21.04;53.03;100011.84;4991998;28;20045;-54
2022/05/16 17:34:41;;;;;;;3.65;1.08;;;;;;;21.06;52.97;100015.28;4979808;28;20054;-47
2022/05/16 17:37:09;;;;;;;3.30;0.90;;;;;;;20.99;53.12;100016.50;4975439;28;20062;-51
2022/05/16 17:39:36;;;;;;;2.88;1.40;;;;;;;20.79;53.52;100020.88;5015171;28;20074;-53
2022/05/16 17:42:06;;;;;;;5.03;1.08;;;;;;;20.61;53.62;100029.59;4980689;28;20104;-53
2022/05/16 17:44:34;;;;;;;3.35;1.60;;;;;;;20.40;54.21;100032.28;4985654;28;20688;-49
2022/05/16 17:47:02;;;;;;;5.88;0.85;;;;;;;20.27;54.32;100043.31;4985315;28;20630;-46
2022/05/16 17:49:29;;;;;;;2.97;1.15;;;;;;;20.13;54.91;100043.91;4985633;28;20067;-48
2022/05/16 17:51:56;;;;;;;3.00;1.30;;;;;;;20.12;55.02;100049.25;4983314;28;20737;-51
2022/05/16 17:54:25;;;;;;;3.20;1.02;;;;;;;20.06;55.45;100049.53;4982935;28;20569;-52
2022/05/16 17:56:54;;;;;;;1.55;0.90;;;;;;;20.02;55.43;100054.03;4980925;28;20051;-48
2022/05/16 17:59:22;;;;;;;5.55;1.05;;;;;;;19.95;55.83;100052.56;4983781;28;20050;-50
2022/05/16 18:01:51;;;;;;;2.90;1.13;;;;;;;19.94;55.64;100064.84;4982404;28;20111;-49
2022/05/16 18:04:18;;;;;;;2.70;0.82;;;;;;;19.96;55.56;100070.88;4977709;28;20051;-55
2022/05/16 18:06:48;;;;;;;2.55;1.27;;;;;;;19.97;55.30;100067.38;4974080;28;20050;-55
2022/05/16 18:09:16;;;;;;;4.20;0.73;;;;;;;19.97;55.55;100067.38;5000947;28;20450;-49
2022/05/16 18:14:35;;;;;;;3.15;1.08;;;;;;;19.88;55.94;100062.47;4975114;28;20063;-51
2022/05/16 18:17:07;;;;;;;2.40;0.93;;;;;;;19.77;55.72;100070.81;4970361;28;20138;-50
2022/05/16 18:19:36;;;;;;;4.07;0.95;;;;;;;19.71;56.26;100066.66;4974523;28;20039;-51
2022/05/16 18:22:06;;;;;;;5.60;1.15;;;;;;;19.71;56.24;100066.66;4989921;28;20059;-52
2022/05/16 18:24:33;;;;;;;2.70;0.93;;;;;;;19.66;56.18;100066.00;4967213;28;20055;-50
2022/05/16 18:27:00;;;;;;;5.35;1.15;;;;;;;19.68;56.18;100076.41;4966798;28;20051;-50